Time;durP1;ratioP1;P1;durP2;ratioP2;P2;SDS_P1;SDS_P2;PMS_P1;PMS_P2;Temp;Humidity;BMP_temperature;BMP_pressure;BME280_temperature;BME280_humidity;BME280_pressure;Samples;Min_cycle;Max_cycle;Signal;HPM_P1;HPM_P2
2024/03/30 00:02:24;;;;;;;19.80;18.80;;;;;;;;;;5036857;28;20521;-77
2024/03/30 00:04:52;;;;;;;20.87;19.87;;;;;;;;;;5036969;28;20513;-78
2024/03/30 00:07:19;;;;;;;19.93;18.93;;;;;;;;;;5037643;28;20456;-77
2024/03/30 00:09:47;;;;;;;20.00;19.00;;;;;;;;;;5037799;28;20452;-79
2024/03/30 00:12:14;;;;;;;21.27;20.27;;;;;;;;;;5037506;28;20447;-78
2024/03/30 00:14:40;;;;;;;21.50;20.30;;;;;;;;;;5037265;28;20426;-79
2024/03/30 00:17:07;;;;;;;22.40;21.20;;;;;;;;;;5037036;28;20452;-78
2024/03/30 00:19:35;;;;;;;21.80;20.70;;;;;;;;;;5036503;28;20509;-79
2024/03/30 00:22:04;;;;;;;22.17;21.00;;;;;;;;;;5036934;28;20540;-79
2024/03/30 00:24:30;;;;;;;23.03;21.83;;;;;;;;;;5036881;28;20488;-79
2024/03/30 00:26:57;;;;;;;22.93;21.73;;;;;;;;;;5037295;28;20450;-78
2024/03/30 00:29:23;;;;;;;23.20;22.00;;;;;;;;;;5037703;28;20444;-79
2024/03/30 00:31:50;;;;;;;22.57;21.37;;;;;;;;;;5037810;28;20471;-79
2024/03/30 00:34:16;;;;;;;23.10;21.90;;;;;;;;;;5040295;28;20480;-78
2024/03/30 00:36:43;;;;;;;24.57;22.60;;;;;;;;;;5039975;28;20884;-78
2024/03/30 00:39:11;;;;;;;24.30;23.00;;;;;;;;;;5039826;28;20550;-79
2024/03/30 00:41:40;;;;;;;23.00;21.80;;;;;;;;;;5040533;28;20476;-77
2024/03/30 00:44:06;;;;;;;23.90;22.60;;;;;;;;;;5039695;28;20559;-79
2024/03/30 00:46:33;;;;;;;23.60;22.20;;;;;;;;;;5039779;28;20428;-79
2024/03/30 00:48:59;;;;;;;23.77;22.43;;;;;;;;;;5038811;28;20448;-79
2024/03/30 00:51:26;;;;;;;23.10;21.90;;;;;;;;;;5038894;28;20434;-79
2024/03/30 00:53:52;;;;;;;23.13;21.83;;;;;;;;;;5039743;28;20450;-78
2024/03/30 00:56:21;;;;;;;22.70;21.50;;;;;;;;;;5039702;28;20427;-78
2024/03/30 00:58:47;;;;;;;24.03;22.30;;;;;;;;;;5039258;28;20497;-78
2024/03/30 01:01:16;;;;;;;23.63;22.33;;;;;;;;;;5038908;28;20492;-78
2024/03/30 01:03:42;;;;;;;24.03;22.37;;;;;;;;;;5038811;28;20592;-78
2024/03/30 01:06:09;;;;;;;23.90;22.50;;;;;;;;;;5039734;28;20457;-79
2024/03/30 01:08:35;;;;;;;23.90;22.70;;;;;;;;;;5037859;28;20790;-78
2024/03/30 01:11:04;;;;;;;26.20;24.70;;;;;;;;;;5039840;28;20467;-79
2024/03/30 01:13:31;;;;;;;23.43;22.03;;;;;;;;;;5041896;28;20943;-78
2024/03/30 01:15:59;;;;;;;24.90;23.13;;;;;;;;;;5043797;28;20452;-79
2024/03/30 01:18:25;;;;;;;23.90;22.60;;;;;;;;;;5041034;28;20457;-79
2024/03/30 01:20:53;;;;;;;23.27;21.87;;;;;;;;;;5043601;28;20498;-78
2024/03/30 01:23:19;;;;;;;23.30;22.00;;;;;;;;;;5041689;28;20883;-80
2024/03/30 01:25:47;;;;;;;23.37;21.97;;;;;;;;;;5038995;28;20408;-79
2024/03/30 01:28:13;;;;;;;22.13;21.00;;;;;;;;;;5043255;28;21047;-79
2024/03/30 01:30:42;;;;;;;23.00;21.80;;;;;;;;;;5041732;28;20522;-79
2024/03/30 01:33:09;;;;;;;23.83;22.43;;;;;;;;;;5044035;28;20424;-78
2024/03/30 01:35:36;;;;;;;23.20;22.00;;;;;;;;;;5041173;28;20948;-78
2024/03/30 01:38:02;;;;;;;23.37;21.90;;;;;;;;;;5040972;28;20494;-78
2024/03/30 01:40:33;;;;;;;22.67;21.57;;;;;;;;;;5040170;28;20456;-79
2024/03/30 01:43:01;;;;;;;23.77;22.37;;;;;;;;;;5041563;28;20503;-78
2024/03/30 01:45:32;;;;;;;23.70;22.40;;;;;;;;;;5041205;28;20563;-77
2024/03/30 01:47:59;;;;;;;23.10;21.90;;;;;;;;;;5040843;28;20457;-78
2024/03/30 01:50:27;;;;;;;23.73;22.17;;;;;;;;;;5041579;28;20466;-79
2024/03/30 01:52:53;;;;;;;23.00;21.80;;;;;;;;;;5042560;28;20432;-79
2024/03/30 01:55:20;;;;;;;23.33;22.13;;;;;;;;;;5041198;28;20464;-78
2024/03/30 01:57:46;;;;;;;23.80;22.50;;;;;;;;;;5043509;28;20425;-79
2024/03/30 02:00:13;;;;;;;23.10;21.80;;;;;;;;;;5039647;28;20384;-77
2024/03/30 02:02:40;;;;;;;23.50;22.30;;;;;;;;;;5041644;28;20487;-80
2024/03/30 02:05:08;;;;;;;24.10;22.60;;;;;;;;;;5037258;28;20807;-79
2024/03/30 02:07:35;;;;;;;24.40;23.07;;;;;;;;;;5042673;28;20427;-79
2024/03/30 02:10:02;;;;;;;23.53;22.13;;;;;;;;;;5040290;28;20461;-78
2024/03/30 02:12:29;;;;;;;23.97;22.47;;;;;;;;;;5040562;28;20931;-78
2024/03/30 02:14:56;;;;;;;24.50;23.20;;;;;;;;;;5041229;28;20439;-78
2024/03/30 02:17:22;;;;;;;24.07;22.87;;;;;;;;;;5036940;28;20433;-79
2024/03/30 02:19:49;;;;;;;24.00;22.70;;;;;;;;;;5036735;28;20423;-79
2024/03/30 02:22:18;;;;;;;25.40;23.67;;;;;;;;;;5036238;28;20462;-78
2024/03/30 02:24:46;;;;;;;23.90;22.70;;;;;;;;;;5037966;28;20456;-79
2024/03/30 02:27:13;;;;;;;24.17;22.67;;;;;;;;;;5035846;28;20422;-79
2024/03/30 02:29:40;;;;;;;23.27;21.97;;;;;;;;;;5035335;28;20451;-78
2024/03/30 02:32:07;;;;;;;23.47;22.07;;;;;;;;;;5035862;28;20452;-78
2024/03/30 02:34:34;;;;;;;23.60;22.10;;;;;;;;;;5035707;28;20499;-78
2024/03/30 02:37:00;;;;;;;23.30;21.73;;;;;;;;;;5036829;28;20838;-79
2024/03/30 02:39:27;;;;;;;22.70;21.30;;;;;;;;;;5036839;28;20503;-78
2024/03/30 02:41:55;;;;;;;21.60;20.50;;;;;;;;;;5033562;28;20494;-79
2024/03/30 02:44:22;;;;;;;21.53;20.43;;;;;;;;;;5033991;28;20812;-77
2024/03/30 02:46:48;;;;;;;22.13;21.03;;;;;;;;;;5033095;28;20850;-78
2024/03/30 02:49:15;;;;;;;22.10;21.00;;;;;;;;;;5041796;28;21205;-79
2024/03/30 02:51:42;;;;;;;21.57;20.47;;;;;;;;;;5043918;28;20500;-77
2024/03/30 02:54:09;;;;;;;22.93;21.73;;;;;;;;;;5042287;28;20494;-79
2024/03/30 02:56:36;;;;;;;21.43;20.33;;;;;;;;;;5043310;28;20454;-78
2024/03/30 02:59:04;;;;;;;22.20;21.07;;;;;;;;;;5035357;28;20799;-78
2024/03/30 03:01:30;;;;;;;22.73;21.53;;;;;;;;;;5039815;28;20853;-78
2024/03/30 03:03:57;;;;;;;22.00;20.90;;;;;;;;;;5039994;28;20497;-78
2024/03/30 03:06:23;;;;;;;21.50;20.40;;;;;;;;;;5037749;28;20520;-78
2024/03/30 03:08:50;;;;;;;21.03;19.93;;;;;;;;;;5039007;28;20463;-78
2024/03/30 03:11:16;;;;;;;21.73;20.53;;;;;;;;;;5040819;28;20854;-78
2024/03/30 03:13:43;;;;;;;21.90;20.80;;;;;;;;;;5035346;28;20435;-78
2024/03/30 03:16:11;;;;;;;21.03;19.93;;;;;;;;;;5036339;28;20442;-79
2024/03/30 03:18:38;;;;;;;21.40;20.40;;;;;;;;;;5034128;28;20797;-79
2024/03/30 03:21:04;;;;;;;20.80;19.73;;;;;;;;;;5038071;28;20517;-79
2024/03/30 03:23:32;;;;;;;20.67;19.57;;;;;;;;;;5033882;28;21001;-78
2024/03/30 03:25:58;;;;;;;20.80;19.80;;;;;;;;;;5034576;28;20872;-78
2024/03/30 03:28:25;;;;;;;20.70;19.60;;;;;;;;;;5033982;28;20502;-78
2024/03/30 03:30:51;;;;;;;20.67;19.67;;;;;;;;;;5034225;28;20480;-78
2024/03/30 03:33:20;;;;;;;20.30;19.30;;;;;;;;;;5037129;28;20448;-79
2024/03/30 03:35:46;;;;;;;19.27;18.37;;;;;;;;;;5036174;28;20476;-77
2024/03/30 03:38:13;;;;;;;20.23;19.23;;;;;;;;;;5034303;28;20858;-79
2024/03/30 03:43:44;;;;;;;20.33;19.33;;;;;;;;;;5035848;28;20493;-79
2024/03/30 03:46:10;;;;;;;19.63;18.73;;;;;;;;;;5034184;28;20456;-77
2024/03/30 03:48:38;;;;;;;18.80;17.80;;;;;;;;;;5033062;28;20476;-79
2024/03/30 03:51:04;;;;;;;19.33;18.43;;;;;;;;;;5033562;28;20886;-77
2024/03/30 03:53:31;;;;;;;20.10;18.80;;;;;;;;;;5034205;28;20496;-77
2024/03/30 03:55:57;;;;;;;18.70;17.90;;;;;;;;;;5034150;28;20419;-79
2024/03/30 03:58:24;;;;;;;19.40;18.50;;;;;;;;;;5032502;28;20533;-78
2024/03/30 04:00:50;;;;;;;19.27;18.17;;;;;;;;;;5034083;28;20468;-78
2024/03/30 04:03:17;;;;;;;19.93;18.93;;;;;;;;;;5034356;28;20518;-78
2024/03/30 04:05:45;;;;;;;18.87;18.00;;;;;;;;;;5036245;28;20802;-78
2024/03/30 04:08:12;;;;;;;19.03;18.13;;;;;;;;;;5041803;28;20498;-79
2024/03/30 04:10:38;;;;;;;18.80;17.80;;;;;;;;;;5038274;28;20431;-78
2024/03/30 04:13:05;;;;;;;18.67;17.63;;;;;;;;;;5037936;28;20421;-78
2024/03/30 04:15:33;;;;;;;17.77;16.97;;;;;;;;;;5038552;28;20542;-78
2024/03/30 04:18:00;;;;;;;18.47;17.67;;;;;;;;;;5036275;28;20549;-78
2024/03/30 04:20:26;;;;;;;18.80;17.90;;;;;;;;;;5039774;28;20429;-79
2024/03/30 04:22:55;;;;;;;18.57;17.70;;;;;;;;;;5039595;28;20472;-78
2024/03/30 04:25:22;;;;;;;19.27;18.37;;;;;;;;;;5037090;28;20508;-77
2024/03/30 04:27:48;;;;;;;18.80;17.90;;;;;;;;;;5038513;28;20439;-79
2024/03/30 04:30:17;;;;;;;19.77;18.77;;;;;;;;;;5038018;28;20486;-78
2024/03/30 04:32:44;;;;;;;20.07;18.87;;;;;;;;;;5038245;28;20465;-77
2024/03/30 04:35:10;;;;;;;19.73;18.73;;;;;;;;;;5038824;28;20497;-79
2024/03/30 04:37:38;;;;;;;19.00;18.00;;;;;;;;;;5038205;28;20490;-80
2024/03/30 04:40:07;;;;;;;18.97;17.90;;;;;;;;;;5036383;28;20433;-78
2024/03/30 04:42:34;;;;;;;19.20;18.20;;;;;;;;;;5036358;28;20444;-78
2024/03/30 04:45:00;;;;;;;18.03;17.13;;;;;;;;;;5036288;28;20415;-78
2024/03/30 04:47:27;;;;;;;18.70;17.10;;;;;;;;;;5037776;28;20418;-78
2024/03/30 04:49:53;;;;;;;17.73;16.83;;;;;;;;;;5036164;28;20538;-77
2024/03/30 04:52:20;;;;;;;17.60;16.80;;;;;;;;;;5036821;28;20459;-78
2024/03/30 04:54:46;;;;;;;17.43;16.53;;;;;;;;;;5037109;28;20443;-76
2024/03/30 04:57:14;;;;;;;17.80;17.00;;;;;;;;;;5037642;28;20836;-78
2024/03/30 04:59:40;;;;;;;18.53;17.63;;;;;;;;;;5035824;28;20471;-78
2024/03/30 05:02:07;;;;;;;18.07;17.17;;;;;;;;;;5034813;28;20478;-78
2024/03/30 05:04:33;;;;;;;17.40;16.60;;;;;;;;;;5035139;28;20463;-78
2024/03/30 05:07:00;;;;;;;18.20;17.20;;;;;;;;;;5034085;28;20452;-75
2024/03/30 05:09:26;;;;;;;18.87;17.77;;;;;;;;;;5033027;28;20446;-76
2024/03/30 05:11:53;;;;;;;18.07;17.00;;;;;;;;;;5034177;28;20443;-76
2024/03/30 05:14:23;;;;;;;17.30;16.30;;;;;;;;;;5032670;28;20422;-75
2024/03/30 05:16:50;;;;;;;17.87;17.00;;;;;;;;;;5033356;28;20457;-76
2024/03/30 05:21:58;;;;;;;20.30;19.13;;;;;;;;;;5035024;28;20438;-76
2024/03/30 05:24:25;;;;;;;18.70;17.80;;;;;;;;;;5036708;28;20986;-75
2024/03/30 05:26:51;;;;;;;18.53;17.63;;;;;;;;;;5034800;28;20488;-75
2024/03/30 05:29:18;;;;;;;21.00;19.43;;;;;;;;;;5034319;28;20841;-76
2024/03/30 05:31:45;;;;;;;19.17;18.10;;;;;;;;;;5034935;28;20991;-76
2024/03/30 05:34:12;;;;;;;18.63;17.73;;;;;;;;;;5035107;28;20513;-75
2024/03/30 05:36:39;;;;;;;18.50;17.50;;;;;;;;;;5044102;28;20471;-76
2024/03/30 05:39:06;;;;;;;18.47;17.57;;;;;;;;;;5034156;28;20460;-76
2024/03/30 05:41:32;;;;;;;18.17;17.07;;;;;;;;;;5033734;28;20486;-76
2024/03/30 05:43:59;;;;;;;18.73;17.83;;;;;;;;;;5034700;28;20458;-75
2024/03/30 05:46:28;;;;;;;18.77;17.80;;;;;;;;;;5034636;28;20466;-76
2024/03/30 05:48:58;;;;;;;17.77;16.80;;;;;;;;;;5034008;28;20458;-76
2024/03/30 05:51:25;;;;;;;17.80;16.73;;;;;;;;;;5034748;28;20474;-76
2024/03/30 05:59:18;;;;;;;17.70;16.80;;;;;;;;;;5009091;28;20428;-76
2024/03/30 06:01:44;;;;;;;17.60;16.70;;;;;;;;;;5030797;28;20451;-75
2024/03/30 06:04:13;;;;;;;18.60;17.53;;;;;;;;;;5032729;28;20463;-76
2024/03/30 06:06:39;;;;;;;18.90;17.70;;;;;;;;;;5033155;28;20529;-76
2024/03/30 06:09:06;;;;;;;17.97;16.67;;;;;;;;;;5032488;28;20834;-76
2024/03/30 06:11:32;;;;;;;17.20;16.27;;;;;;;;;;5033414;28;20443;-76
2024/03/30 06:13:59;;;;;;;17.30;16.40;;;;;;;;;;5032701;28;20509;-77
2024/03/30 06:16:25;;;;;;;16.90;16.10;;;;;;;;;;5032888;28;21005;-76
2024/03/30 06:18:52;;;;;;;16.70;15.80;;;;;;;;;;5032126;28;20558;-76
2024/03/30 06:21:20;;;;;;;17.10;16.10;;;;;;;;;;5032636;28;20468;-76
2024/03/30 06:23:47;;;;;;;17.10;16.30;;;;;;;;;;5032076;28;20578;-76
2024/03/30 06:26:13;;;;;;;17.13;16.30;;;;;;;;;;5032711;28;20458;-75
2024/03/30 06:28:40;;;;;;;19.63;17.87;;;;;;;;;;5033046;28;20422;-76
2024/03/30 06:31:08;;;;;;;16.57;15.73;;;;;;;;;;5032375;28;20450;-75
2024/03/30 06:33:35;;;;;;;17.00;16.10;;;;;;;;;;5032577;28;20515;-76
2024/03/30 06:36:01;;;;;;;16.47;15.57;;;;;;;;;;5032568;28;20427;-76
2024/03/30 06:38:31;;;;;;;17.13;16.13;;;;;;;;;;5030768;28;20994;-76
2024/03/30 06:43:43;;;;;;;17.70;16.13;;;;;;;;;;5031962;28;20446;-76
2024/03/30 06:46:10;;;;;;;16.90;15.80;;;;;;;;;;5032271;28;20455;-75
2024/03/30 06:48:37;;;;;;;17.20;15.83;;;;;;;;;;5031538;28;20445;-76
2024/03/30 06:51:04;;;;;;;16.77;15.70;;;;;;;;;;5031340;28;20462;-75
2024/03/30 06:53:33;;;;;;;17.80;16.80;;;;;;;;;;5032867;28;20505;-76
2024/03/30 06:55:59;;;;;;;17.57;16.37;;;;;;;;;;5032403;28;20432;-76
2024/03/30 06:58:27;;;;;;;18.70;17.40;;;;;;;;;;5030609;28;21480;-76
2024/03/30 07:00:53;;;;;;;18.03;16.00;;;;;;;;;;5033096;28;20447;-76
2024/03/30 07:03:20;;;;;;;17.33;16.10;;;;;;;;;;5033379;28;20484;-75
2024/03/30 07:05:46;;;;;;;16.57;15.57;;;;;;;;;;5034146;28;20444;-76
2024/03/30 07:08:13;;;;;;;17.00;15.70;;;;;;;;;;5033696;28;20426;-77
2024/03/30 07:10:41;;;;;;;17.57;16.40;;;;;;;;;;5031795;28;20467;-76
2024/03/30 07:13:08;;;;;;;17.80;16.60;;;;;;;;;;5031467;28;21118;-76
2024/03/30 07:15:36;;;;;;;17.27;16.27;;;;;;;;;;5031629;28;20991;-75
2024/03/30 07:18:03;;;;;;;17.67;16.27;;;;;;;;;;5031748;28;20461;-76
2024/03/30 07:20:29;;;;;;;19.23;17.67;;;;;;;;;;5031584;28;20948;-76
2024/03/30 07:22:56;;;;;;;22.90;17.80;;;;;;;;;;5031186;28;20968;-76
2024/03/30 07:25:22;;;;;;;17.77;16.53;;;;;;;;;;5031698;28;20510;-76
2024/03/30 07:27:51;;;;;;;17.90;16.60;;;;;;;;;;5031831;28;20450;-76
2024/03/30 07:30:17;;;;;;;18.37;16.60;;;;;;;;;;5031592;28;20506;-76
2024/03/30 07:32:44;;;;;;;18.87;17.27;;;;;;;;;;5031753;28;20468;-75
2024/03/30 07:35:10;;;;;;;18.97;17.33;;;;;;;;;;5032787;28;20496;-75
2024/03/30 07:37:37;;;;;;;19.73;17.93;;;;;;;;;;5031408;28;21115;-76
2024/03/30 07:40:03;;;;;;;19.90;18.03;;;;;;;;;;5031113;28;20430;-76
2024/03/30 07:42:30;;;;;;;18.93;17.53;;;;;;;;;;5035111;28;20445;-76
2024/03/30 07:44:59;;;;;;;19.47;18.07;;;;;;;;;;5034682;28;20538;-76
2024/03/30 07:47:26;;;;;;;19.97;18.10;;;;;;;;;;5035888;28;20438;-76
2024/03/30 07:49:52;;;;;;;29.50;17.93;;;;;;;;;;5035277;28;20478;-76
2024/03/30 07:52:19;;;;;;;18.87;17.47;;;;;;;;;;5035394;28;20482;-76
2024/03/30 07:54:45;;;;;;;19.10;17.50;;;;;;;;;;5035548;28;20498;-76
2024/03/30 07:57:12;;;;;;;18.93;17.33;;;;;;;;;;5035516;28;20869;-76
2024/03/30 07:59:38;;;;;;;23.33;18.00;;;;;;;;;;5034859;28;20479;-76
2024/03/30 08:02:09;;;;;;;18.83;17.40;;;;;;;;;;5034958;28;20468;-76
2024/03/30 08:04:35;;;;;;;18.83;17.63;;;;;;;;;;5038423;28;20512;-76
2024/03/30 08:07:02;;;;;;;19.33;17.43;;;;;;;;;;5035564;28;20448;-76
2024/03/30 08:09:28;;;;;;;19.17;17.60;;;;;;;;;;5034670;28;20837;-75
2024/03/30 08:11:55;;;;;;;19.47;17.80;;;;;;;;;;5034913;28;20526;-75
2024/03/30 08:14:21;;;;;;;20.20;18.17;;;;;;;;;;5035731;28;20472;-75
2024/03/30 08:16:48;;;;;;;20.70;18.57;;;;;;;;;;5035612;28;20856;-75
2024/03/30 08:19:17;;;;;;;20.80;18.70;;;;;;;;;;5035826;28;20443;-76
2024/03/30 08:21:44;;;;;;;23.93;18.83;;;;;;;;;;5038403;28;20447;-76
2024/03/30 08:24:10;;;;;;;20.30;18.37;;;;;;;;;;5035272;28;20512;-77
2024/03/30 08:26:37;;;;;;;19.23;18.13;;;;;;;;;;5036262;28;20480;-75
2024/03/30 08:29:03;;;;;;;19.33;17.93;;;;;;;;;;5034471;28;20443;-76
2024/03/30 08:31:30;;;;;;;19.33;17.67;;;;;;;;;;5034934;28;20470;-75
2024/03/30 08:33:56;;;;;;;19.87;18.23;;;;;;;;;;5034503;28;20432;-75
2024/03/30 08:36:25;;;;;;;25.03;18.20;;;;;;;;;;5035307;28;20441;-75
2024/03/30 08:38:51;;;;;;;20.53;18.63;;;;;;;;;;5034600;28;21007;-76
2024/03/30 08:41:18;;;;;;;20.33;18.60;;;;;;;;;;5034811;28;20963;-75
2024/03/30 08:43:44;;;;;;;20.03;18.50;;;;;;;;;;5034571;28;20529;-75
2024/03/30 08:46:11;;;;;;;20.00;18.50;;;;;;;;;;5034234;28;20443;-75
2024/03/30 08:48:37;;;;;;;20.40;19.00;;;;;;;;;;5034287;28;20460;-75
2024/03/30 08:51:04;;;;;;;20.90;19.40;;;;;;;;;;5034969;28;20451;-75
2024/03/30 08:53:31;;;;;;;21.90;19.70;;;;;;;;;;5034887;28;20477;-76
2024/03/30 08:55:59;;;;;;;21.83;20.13;;;;;;;;;;5035320;28;20468;-77
2024/03/30 08:58:25;;;;;;;20.83;18.80;;;;;;;;;;5034261;28;21019;-76
2024/03/30 09:00:52;;;;;;;21.73;19.90;;;;;;;;;;5034747;28;20455;-75
2024/03/30 09:03:18;;;;;;;20.43;18.70;;;;;;;;;;5034826;28;20416;-74
2024/03/30 09:05:46;;;;;;;20.30;19.00;;;;;;;;;;5035076;28;21019;-76
2024/03/30 09:08:12;;;;;;;21.47;19.57;;;;;;;;;;5035092;28;20437;-76
2024/03/30 09:10:40;;;;;;;19.50;18.10;;;;;;;;;;5035710;28;20442;-74
2024/03/30 09:13:06;;;;;;;22.57;20.57;;;;;;;;;;5034785;28;20424;-75
2024/03/30 09:15:33;;;;;;;20.40;19.00;;;;;;;;;;5034100;28;20421;-76
2024/03/30 09:18:00;;;;;;;21.03;19.23;;;;;;;;;;5034681;28;20404;-75
2024/03/30 09:20:27;;;;;;;21.70;19.67;;;;;;;;;;5035028;28;20424;-74
2024/03/30 09:22:53;;;;;;;21.33;19.47;;;;;;;;;;5038049;28;20419;-75
2024/03/30 09:25:20;;;;;;;21.27;19.07;;;;;;;;;;5036031;28;20891;-74
2024/03/30 09:27:47;;;;;;;22.47;20.23;;;;;;;;;;5034156;28;20444;-76
2024/03/30 09:30:14;;;;;;;21.40;19.50;;;;;;;;;;5032748;28;21307;-75
2024/03/30 09:32:41;;;;;;;21.33;19.50;;;;;;;;;;5034372;28;20522;-75
2024/03/30 09:35:09;;;;;;;22.40;20.37;;;;;;;;;;5033923;28;20849;-76
2024/03/30 09:37:37;;;;;;;21.90;19.93;;;;;;;;;;5031629;28;20453;-75
2024/03/30 09:40:05;;;;;;;22.50;20.07;;;;;;;;;;5033364;28;20499;-76
2024/03/30 09:42:31;;;;;;;22.10;20.00;;;;;;;;;;5033933;28;20465;-75
2024/03/30 09:45:01;;;;;;;26.30;21.43;;;;;;;;;;5033597;28;20514;-75
2024/03/30 09:47:27;;;;;;;23.03;20.53;;;;;;;;;;5033839;28;20886;-75
2024/03/30 09:49:54;;;;;;;24.63;20.90;;;;;;;;;;5032868;28;20515;-75
2024/03/30 09:52:20;;;;;;;23.30;20.20;;;;;;;;;;5033225;28;20464;-75
2024/03/30 09:54:51;;;;;;;21.40;19.83;;;;;;;;;;5032944;28;20930;-75
2024/03/30 09:57:17;;;;;;;21.87;20.17;;;;;;;;;;5033961;28;20557;-76
2024/03/30 09:59:45;;;;;;;22.43;20.17;;;;;;;;;;5032941;28;20443;-75
2024/03/30 10:02:12;;;;;;;22.43;20.50;;;;;;;;;;5033182;28;20469;-75
2024/03/30 10:04:39;;;;;;;24.53;20.50;;;;;;;;;;5032081;28;20976;-75
2024/03/30 10:07:09;;;;;;;22.93;20.77;;;;;;;;;;5032594;28;20470;-76
2024/03/30 10:09:37;;;;;;;22.50;20.23;;;;;;;;;;5033032;28;20492;-77
2024/03/30 10:12:08;;;;;;;22.20;19.90;;;;;;;;;;5032994;28;20475;-75
2024/03/30 10:14:37;;;;;;;22.37;20.20;;;;;;;;;;5032911;28;20559;-76
2024/03/30 10:17:04;;;;;;;27.53;20.67;;;;;;;;;;5032169;28;20457;-75
2024/03/30 10:19:33;;;;;;;21.97;20.13;;;;;;;;;;5032028;28;20507;-76
2024/03/30 10:22:01;;;;;;;26.70;21.20;;;;;;;;;;5032370;28;20458;-75
2024/03/30 10:24:29;;;;;;;23.20;20.80;;;;;;;;;;5032536;28;20509;-76
2024/03/30 10:26:55;;;;;;;25.87;21.33;;;;;;;;;;5032269;28;20863;-75
2024/03/30 10:29:22;;;;;;;21.50;19.60;;;;;;;;;;5032130;28;21121;-76
2024/03/30 10:31:48;;;;;;;22.27;20.40;;;;;;;;;;5032396;28;20469;-75
2024/03/30 10:34:15;;;;;;;31.47;21.53;;;;;;;;;;5032615;28;20446;-75
2024/03/30 10:36:42;;;;;;;27.00;21.27;;;;;;;;;;5032180;28;20561;-76
2024/03/30 10:39:09;;;;;;;23.50;21.27;;;;;;;;;;5032368;28;20445;-76
2024/03/30 10:41:35;;;;;;;26.63;21.63;;;;;;;;;;5032433;28;20472;-77
2024/03/30 10:44:03;;;;;;;22.87;20.67;;;;;;;;;;5032322;28;20476;-76
2024/03/30 10:46:29;;;;;;;22.83;20.63;;;;;;;;;;5032456;28;20455;-76
2024/03/30 10:48:57;;;;;;;24.57;22.03;;;;;;;;;;5031324;28;20564;-76
2024/03/30 10:51:24;;;;;;;28.53;22.13;;;;;;;;;;5032470;28;20504;-74
2024/03/30 10:53:52;;;;;;;27.17;21.20;;;;;;;;;;5032366;28;20444;-76
2024/03/30 10:56:18;;;;;;;25.40;21.73;;;;;;;;;;5031831;28;20417;-76
2024/03/30 10:58:47;;;;;;;29.00;21.37;;;;;;;;;;5030991;28;20454;-75
2024/03/30 11:01:14;;;;;;;25.37;22.17;;;;;;;;;;5032082;28;20444;-76
2024/03/30 11:03:41;;;;;;;32.20;21.03;;;;;;;;;;5032173;28;20829;-75
2024/03/30 11:06:09;;;;;;;25.43;22.87;;;;;;;;;;5032597;28;20495;-75
2024/03/30 11:08:36;;;;;;;26.90;21.23;;;;;;;;;;5031560;28;20480;-76
2024/03/30 11:11:05;;;;;;;27.17;22.80;;;;;;;;;;5032046;28;20523;-75
2024/03/30 11:13:32;;;;;;;25.97;23.03;;;;;;;;;;5032331;28;20458;-75
2024/03/30 11:16:00;;;;;;;32.53;22.63;;;;;;;;;;5033045;28;20937;-76
2024/03/30 11:18:28;;;;;;;29.80;22.03;;;;;;;;;;5035282;28;21138;-77
2024/03/30 11:20:57;;;;;;;26.70;22.40;;;;;;;;;;5036564;28;20470;-76
2024/03/30 11:23:28;;;;;;;32.77;22.57;;;;;;;;;;5036746;28;20411;-76
2024/03/30 11:26:04;;;;;;;24.57;21.93;;;;;;;;;;5039973;28;20497;-76
2024/03/30 11:28:36;;;;;;;25.63;22.00;;;;;;;;;;5036210;28;20929;-76
2024/03/30 11:31:04;;;;;;;33.30;22.97;;;;;;;;;;5037180;28;20472;-76
2024/03/30 11:33:35;;;;;;;28.47;23.13;;;;;;;;;;5036146;28;21013;-76
2024/03/30 11:36:06;;;;;;;27.10;23.17;;;;;;;;;;5036728;28;20420;-75
2024/03/30 11:38:34;;;;;;;30.23;24.57;;;;;;;;;;5035451;28;20407;-76
2024/03/30 11:41:01;;;;;;;30.13;23.80;;;;;;;;;;5035505;28;20912;-75
2024/03/30 11:43:32;;;;;;;25.87;23.23;;;;;;;;;;5035801;28;20428;-75
2024/03/30 11:46:00;;;;;;;28.93;23.67;;;;;;;;;;5037401;28;20478;-75
2024/03/30 11:48:28;;;;;;;33.63;22.10;;;;;;;;;;5036468;28;20459;-76
2024/03/30 11:50:54;;;;;;;32.27;24.43;;;;;;;;;;5035503;28;20456;-76
2024/03/30 11:53:21;;;;;;;32.43;24.30;;;;;;;;;;5035373;28;20463;-75
2024/03/30 11:55:49;;;;;;;30.77;23.40;;;;;;;;;;5035613;28;20405;-75
2024/03/30 11:58:20;;;;;;;29.37;24.63;;;;;;;;;;5035039;28;20437;-76
2024/03/30 12:00:53;;;;;;;27.83;22.90;;;;;;;;;;5034714;28;20465;-76
2024/03/30 12:03:21;;;;;;;36.27;24.53;;;;;;;;;;5035399;28;20425;-75
2024/03/30 12:05:48;;;;;;;24.70;22.17;;;;;;;;;;5035343;28;20460;-75
2024/03/30 12:08:16;;;;;;;25.33;22.70;;;;;;;;;;5035050;28;20496;-76
2024/03/30 12:10:47;;;;;;;29.33;24.07;;;;;;;;;;5034651;28;20478;-75
2024/03/30 12:13:14;;;;;;;27.10;24.23;;;;;;;;;;5035526;28;20444;-75
2024/03/30 12:15:40;;;;;;;27.80;24.90;;;;;;;;;;5036325;28;20823;-77
2024/03/30 12:18:07;;;;;;;32.87;23.57;;;;;;;;;;5035176;28;20435;-76
2024/03/30 12:20:35;;;;;;;30.63;25.60;;;;;;;;;;5035060;28;20930;-75
2024/03/30 12:23:02;;;;;;;35.37;24.50;;;;;;;;;;5035137;28;20441;-76
2024/03/30 12:25:28;;;;;;;27.00;24.43;;;;;;;;;;5035433;28;20492;-76
2024/03/30 12:27:56;;;;;;;34.30;27.10;;;;;;;;;;5034135;28;20449;-76
2024/03/30 12:30:22;;;;;;;26.77;24.23;;;;;;;;;;5035001;28;20522;-75
2024/03/30 12:32:49;;;;;;;29.40;25.20;;;;;;;;;;5034691;28;20498;-75
2024/03/30 12:35:15;;;;;;;26.77;23.30;;;;;;;;;;5035556;28;20500;-75
2024/03/30 12:37:44;;;;;;;24.67;22.40;;;;;;;;;;5035975;28;20883;-75
2024/03/30 12:40:10;;;;;;;25.83;22.93;;;;;;;;;;5038413;28;20450;-75
2024/03/30 12:42:37;;;;;;;29.03;24.83;;;;;;;;;;5035490;28;20481;-76
2024/03/30 12:45:03;;;;;;;26.20;23.40;;;;;;;;;;5034899;28;20476;-74
2024/03/30 12:47:30;;;;;;;26.73;23.90;;;;;;;;;;5034226;28;20438;-75
2024/03/30 12:49:56;;;;;;;30.33;24.20;;;;;;;;;;5036396;28;20456;-75
2024/03/30 12:52:23;;;;;;;30.47;23.33;;;;;;;;;;5035982;28;20489;-75
2024/03/30 12:54:50;;;;;;;31.83;24.07;;;;;;;;;;5037454;28;20516;-75
2024/03/30 12:57:17;;;;;;;26.83;24.10;;;;;;;;;;5035717;28;20512;-74
2024/03/30 12:59:43;;;;;;;35.93;23.27;;;;;;;;;;5036007;28;20446;-75
2024/03/30 13:02:12;;;;;;;35.10;22.77;;;;;;;;;;5035190;28;20452;-75
2024/03/30 13:04:38;;;;;;;26.33;23.37;;;;;;;;;;5037648;28;20463;-76
2024/03/30 13:07:05;;;;;;;35.33;22.50;;;;;;;;;;5035416;28;20885;-76
2024/03/30 13:09:31;;;;;;;24.23;21.63;;;;;;;;;;5035351;28;20448;-76
2024/03/30 13:12:01;;;;;;;38.23;22.80;;;;;;;;;;5034981;28;20444;-76
2024/03/30 13:14:27;;;;;;;25.53;23.03;;;;;;;;;;5034637;28;20445;-76
2024/03/30 13:17:03;;;;;;;25.00;22.47;;;;;;;;;;5036106;28;20967;-76
2024/03/30 13:19:32;;;;;;;32.50;23.20;;;;;;;;;;5035154;28;20433;-76
2024/03/30 13:21:58;;;;;;;30.37;22.80;;;;;;;;;;5034219;28;21287;-75
2024/03/30 13:24:25;;;;;;;28.53;23.07;;;;;;;;;;5033708;28;20574;-76
2024/03/30 13:26:51;;;;;;;27.30;24.20;;;;;;;;;;5034869;28;20527;-75
2024/03/30 13:29:19;;;;;;;28.07;22.53;;;;;;;;;;5033584;28;20428;-76
2024/03/30 13:31:47;;;;;;;28.33;23.37;;;;;;;;;;5034173;28;20449;-76
2024/03/30 13:34:15;;;;;;;25.50;22.93;;;;;;;;;;5033361;28;20461;-76
2024/03/30 13:36:41;;;;;;;27.03;22.27;;;;;;;;;;5034115;28;20488;-76
2024/03/30 13:39:11;;;;;;;29.23;23.10;;;;;;;;;;5032691;28;20556;-76
2024/03/30 13:41:37;;;;;;;25.20;22.80;;;;;;;;;;5033555;28;20538;-76
2024/03/30 13:44:04;;;;;;;28.10;22.37;;;;;;;;;;5033176;28;20480;-76
2024/03/30 13:46:32;;;;;;;34.33;22.90;;;;;;;;;;5034548;28;20431;-75
2024/03/30 13:49:03;;;;;;;30.03;24.93;;;;;;;;;;5034685;28;20457;-76
2024/03/30 13:51:29;;;;;;;30.47;25.50;;;;;;;;;;5034563;28;20954;-76
2024/03/30 13:53:56;;;;;;;33.47;26.47;;;;;;;;;;5034019;28;20453;-76
2024/03/30 13:56:22;;;;;;;30.90;25.40;;;;;;;;;;5034802;28;20511;-76
2024/03/30 13:58:49;;;;;;;32.30;23.70;;;;;;;;;;5033058;28;20407;-76
2024/03/30 14:01:15;;;;;;;31.10;23.47;;;;;;;;;;5032675;28;20470;-76
2024/03/30 14:03:43;;;;;;;29.20;24.50;;;;;;;;;;5032501;28;20953;-75
2024/03/30 14:06:09;;;;;;;42.07;24.77;;;;;;;;;;5032362;28;20893;-76
2024/03/30 14:08:37;;;;;;;25.27;22.83;;;;;;;;;;5032495;28;20461;-76
2024/03/30 14:11:04;;;;;;;26.37;23.67;;;;;;;;;;5033001;28;20522;-76
2024/03/30 14:13:31;;;;;;;30.60;23.63;;;;;;;;;;5032978;28;20447;-76
2024/03/30 14:15:57;;;;;;;27.30;23.40;;;;;;;;;;5032393;28;20794;-76
2024/03/30 14:18:24;;;;;;;31.30;23.80;;;;;;;;;;5031873;28;20809;-76
2024/03/30 14:20:51;;;;;;;26.13;23.53;;;;;;;;;;5032206;28;20516;-76
2024/03/30 14:23:18;;;;;;;25.60;23.03;;;;;;;;;;5032821;28;20439;-76
2024/03/30 14:25:46;;;;;;;25.53;22.80;;;;;;;;;;5031865;28;20503;-75
2024/03/30 14:28:13;;;;;;;26.00;23.20;;;;;;;;;;5032294;28;20461;-76
2024/03/30 14:30:40;;;;;;;26.20;23.50;;;;;;;;;;5032433;28;20507;-76